x

South Brooks (46132) Wave Buoy

2:00 - Mon 21st Apr 2014 All times are PDT. -7 hours from GMT.

  • Sig Wave height 13.8ft
  • Peak Period 14s
  • Wind
    11mph, 18mph gusts
  • Sea Temp 47°f
  • Luft Temp 48°f
  • Sea Pressure 1018.5mb
  • South Brooks
  • South Brooks

More Historic Weather Station data

Upgrade to MSW Pro to gain access to the past 30 days of data for over 8000 Wavebouys and Weather Stations around the globe.

Join Pro

Comparision Forecast

View Surf forecast
   
Mo 04/21 2:00 14ft 14s 11 18 mph 1018.5mb 47f 48f
1:00 13.5ft 14s 7 9 mph 1018.5mb 47f 48f
12:00 13ft 14s 9 11 mph 1018.4mb 47f 49f
So 04/20 11:00 14ft 14s 11 16 mph 1018.1mb 47f 49f
10:00 13.5ft 14s 18 22 mph 1017.7mb 47f 49f
9:00 14ft 15s 16 20 mph 1017.5mb 48f 48f
8:00 14ft 14s 20 27 mph 1016.8mb 48f 48f
7:00 14.5ft 14s 18 22 mph 1017mb 48f 48f
6:00 15ft 14s 18 22 mph 1016.9mb 48f 47f
5:00 16.5ft 15s 18 25 mph 1016.7mb 48f 47f
4:00 15.5ft 14s 18 22 mph 1016.3mb 48f 47f
1:00 18ft 14s 34 45 mph 1014.6mb 47f 49f
12:00 17ft 14s 36 45 mph 1014.8mb 47f 49f
11:00 16.5ft 15s 31 43 mph 1015.3mb 48f 50f
10:00 17.5ft 14s 29 38 mph 1015.7mb 48f 50f
9:00 19ft 14s 29 38 mph 1016.1mb 48f 49f
8:00 18.5ft 14s 27 34 mph 1016.5mb 48f 49f
7:00 20.5ft 15s 25 34 mph 1016.6mb 48f 49f
6:00 19.5ft 17s 20 29 mph 1017.1mb 48f 49f
5:00 20.5ft 16s 20 27 mph 1017.3mb 48f 49f
4:00 21ft 17s 20 31 mph 1017.6mb 48f 47f
3:00 22ft 18s 20 25 mph 1017.6mb 48f 49f
2:00 23ft 17s 18 22 mph 1017.7mb 47f 49f
1:00 22ft 17s 16 20 mph 1017.2mb 47f 49f
12:00 22.5ft 17s 9 13 mph 1017mb 47f 47f
Sa 04/19 11:00 23.5ft 14s 20 27 mph 1016.3mb 47f 47f
10:00 25.5ft 16s 16 20 mph 1015.3mb 47f 49f
9:00 24.5ft 15s 18 25 mph 1013.9mb 47f 49f
8:00 24.5ft 15s 16 25 mph 1012.5mb 48f 49f
7:00 24.5ft 15s 18 25 mph 1011.2mb 48f 49f
6:00 17ft 13s 16 25 mph 1010mb 48f 49f
5:00 14ft 12s 22 34 mph 1008.7mb 48f 47f
4:00 13ft 10s 22 27 mph 1007.1mb 48f 47f
3:00 12ft 10s 22 29 mph 1005.6mb 48f 48f
2:00 11ft 10s 22 29 mph 1003.8mb 48f 48f
1:00 13ft 10s 27 31 mph 1002.2mb 48f 49f
12:00 13ft 10s 25 31 mph 1000.9mb 48f 49f
11:00 14ft 12s 27 34 mph 1000mb 48f 49f
10:00 13.5ft 8s 27 34 mph 999.3mb 48f 50f
9:00 16.5ft 10s 31 40 mph 998.9mb 48f 47f
8:00 15ft 8s 38 49 mph 998.8mb 48f 47f
7:00 15.5ft 8s 36 47 mph 998.8mb 48f 48f
6:00 13.5ft 8s 36 47 mph 999.4mb 48f 49f
5:00 11.5ft 8s 38 54 mph 1000mb 48f 49f
4:00 11ft 7s 34 43 mph 1001.4mb 48f 51f
3:00 11ft 8s 34 40 mph 1001.9mb 48f 50f
2:00 11ft 7s 36 47 mph 1002.5mb 48f 50f
1:00 10ft 6s 38 45 mph 1003.6mb 48f 49f
12:00  -   -  36
mph
1005.6mb - 49f
Fr 04/18 11:00 8.5ft 6s 34 40 mph 1007mb 47f 49f
10:00 8ft 6s 31 40 mph 1008.5mb 48f 49f
9:00 8ft 6s 31 38 mph 1009.8mb 48f 49f
8:00 8ft 9s 29 34 mph 1010.9mb 48f 49f
7:00 8ft 10s 25 29 mph 1012.4mb 48f 49f
6:00 8ft 10s 25 31 mph 1013.1mb 48f 49f
5:00 7.5ft 11s 22 27 mph 1014.2mb 48f 49f
4:00 8.5ft 10s 18 22 mph 1015.2mb 49f 49f
3:00 9ft 10s 16 20 mph 1015.8mb 48f 50f
2:00 8.5ft 10s 16 20 mph 1016.4mb 48f 49f
1:00 9ft 11s 13 16 mph 1016.8mb 48f 49f
12:00 9ft 11s 7 9 mph 1017mb 48f 48f
11:00 9.5ft 11s 4 7 mph 1016.7mb 48f 47f
10:00 9.5ft 11s 2 4 mph 1016.5mb 48f 49f
9:00 9ft 10s 4 7 mph 1016.3mb 48f 49f
8:00 8ft 11s 9 11 mph 1015.9mb 48f 48f
7:00 8.5ft 10s 9 11 mph 1015.4mb 48f 47f
6:00 8.5ft 10s 11 13 mph 1014.9mb 48f 47f
5:00 9ft 12s 13 16 mph 1014.7mb 48f 46f
4:00 8.5ft 11s 7 9 mph 1014.6mb 48f 48f
3:00 9ft 11s 4 9 mph 1014.7mb 48f 47f
2:00 10ft 11s 9 13 mph 1014.4mb 48f 47f
1:00 10ft 11s 13 18 mph 1014.3mb 48f 47f
12:00 10ft 10s 18 20 mph 1013.9mb 48f 47f
Do 04/17 11:00 9ft 11s 20 22 mph 1013.3mb 48f 47f
10:00 9.5ft 10s 18 22 mph 1012.6mb 48f 47f
9:00 10ft 10s 22 27 mph 1012mb 48f 47f
8:00 9ft 10s 22 29 mph 1011mb 48f 47f
7:00 9.5ft 12s 22 27 mph 1010.5mb 48f 48f
6:00 9ft 10s 22 27 mph 1009.9mb 48f 48f
5:00 8.5ft 10s 22 27 mph 1009.5mb 48f 48f
4:00 8.5ft 11s 22 27 mph 1008.9mb 48f 48f
3:00 9ft 11s 20 27 mph 1008.4mb 48f 48f
2:00 8ft 11s 20 25 mph 1008.1mb 48f 48f
1:00 9ft 11s 18 22 mph 1007.9mb 48f 48f
12:00 9ft 10s 18 20 mph 1007.3mb 48f 48f
11:00 10ft 12s 16 20 mph 1007.1mb 48f 48f